sensor_id;sensor_type;location;lat;lon;timestamp;temperature;humidity
10384;DHT22;5238;43.508;4.980;2022-07-01T00:01:54;22.00;91.30
10384;DHT22;5238;43.508;4.980;2022-07-01T00:08:14;22.00;91.30
10384;DHT22;5238;43.508;4.980;2022-07-01T00:10:42;22.00;91.30
10384;DHT22;5238;43.508;4.980;2022-07-01T00:13:09;22.00;91.30
10384;DHT22;5238;43.508;4.980;2022-07-01T00:19:21;21.90;91.30
10384;DHT22;5238;43.508;4.980;2022-07-01T00:21:52;21.90;91.30
10384;DHT22;5238;43.508;4.980;2022-07-01T00:24:22;21.90;91.30
10384;DHT22;5238;43.508;4.980;2022-07-01T00:26:52;21.80;91.30
10384;DHT22;5238;43.508;4.980;2022-07-01T00:31:54;21.80;91.30
10384;DHT22;5238;43.508;4.980;2022-07-01T00:34:21;21.80;91.30
10384;DHT22;5238;43.508;4.980;2022-07-01T00:36:48;21.70;91.30
10384;DHT22;5238;43.508;4.980;2022-07-01T00:45:44;21.60;91.30
10384;DHT22;5238;43.508;4.980;2022-07-01T00:51:21;21.60;91.30
10384;DHT22;5238;43.508;4.980;2022-07-01T00:53:49;21.50;91.30
10384;DHT22;5238;43.508;4.980;2022-07-01T00:56:38;21.50;91.30
10384;DHT22;5238;43.508;4.980;2022-07-01T00:59:05;21.50;91.30
10384;DHT22;5238;43.508;4.980;2022-07-01T01:02:06;21.50;91.30
10384;DHT22;5238;43.508;4.980;2022-07-01T01:05:07;21.50;91.30
10384;DHT22;5238;43.508;4.980;2022-07-01T01:08:08;21.50;91.30
10384;DHT22;5238;43.508;4.980;2022-07-01T01:11:04;21.50;91.30
10384;DHT22;5238;43.508;4.980;2022-07-01T01:14:11;21.50;91.30
10384;DHT22;5238;43.508;4.980;2022-07-01T01:16:55;21.50;91.30
10384;DHT22;5238;43.508;4.980;2022-07-01T01:19:58;21.50;91.30
10384;DHT22;5238;43.508;4.980;2022-07-01T01:32:18;21.40;91.30
10384;DHT22;5238;43.508;4.980;2022-07-01T01:38:43;21.30;91.30
10384;DHT22;5238;43.508;4.980;2022-07-01T04:37:21;20.20;91.30
10384;DHT22;5238;43.508;4.980;2022-07-01T04:39:48;20.20;91.30
10384;DHT22;5238;43.508;4.980;2022-07-01T04:42:16;20.20;91.30
10384;DHT22;5238;43.508;4.980;2022-07-01T04:47:33;20.20;91.30
10384;DHT22;5238;43.508;4.980;2022-07-01T04:50:00;20.20;91.30
10384;DHT22;5238;43.508;4.980;2022-07-01T04:52:29;20.30;91.30
10384;DHT22;5238;43.508;4.980;2022-07-01T04:54:56;20.30;91.30
10384;DHT22;5238;43.508;4.980;2022-07-01T04:57:26;20.40;91.30
10384;DHT22;5238;43.508;4.980;2022-07-01T04:59:53;20.40;91.30
10384;DHT22;5238;43.508;4.980;2022-07-01T05:02:20;20.50;91.30
10384;DHT22;5238;43.508;4.980;2022-07-01T05:04:49;20.60;91.30
10384;DHT22;5238;43.508;4.980;2022-07-01T05:07:16;20.70;91.30
10384;DHT22;5238;43.508;4.980;2022-07-01T05:09:59;20.80;91.30
10384;DHT22;5238;43.508;4.980;2022-07-01T05:12:28;20.80;91.30
10384;DHT22;5238;43.508;4.980;2022-07-01T05:14:55;20.80;91.30
10384;DHT22;5238;43.508;4.980;2022-07-01T05:17:23;20.80;91.30
10384;DHT22;5238;43.508;4.980;2022-07-01T05:20:11;20.80;91.30
10384;DHT22;5238;43.508;4.980;2022-07-01T05:22:56;20.90;91.30
10384;DHT22;5238;43.508;4.980;2022-07-01T05:25:27;20.90;91.30
10384;DHT22;5238;43.508;4.980;2022-07-01T05:27:54;20.80;91.30
10384;DHT22;5238;43.508;4.980;2022-07-01T05:30:22;20.80;91.30
10384;DHT22;5238;43.508;4.980;2022-07-01T05:32:49;20.80;91.30
10384;DHT22;5238;43.508;4.980;2022-07-01T05:35:16;20.80;91.30
10384;DHT22;5238;43.508;4.980;2022-07-01T05:37:44;20.80;91.30
10384;DHT22;5238;43.508;4.980;2022-07-01T05:40:12;20.80;91.30
10384;DHT22;5238;43.508;4.980;2022-07-01T05:42:41;20.80;91.30
10384;DHT22;5238;43.508;4.980;2022-07-01T05:45:09;20.90;91.30
10384;DHT22;5238;43.508;4.980;2022-07-01T05:47:36;20.90;91.30
10384;DHT22;5238;43.508;4.980;2022-07-01T05:50:04;21.00;91.30
10384;DHT22;5238;43.508;4.980;2022-07-01T05:52:32;21.00;91.30
10384;DHT22;5238;43.508;4.980;2022-07-01T05:54:59;21.10;91.30
10384;DHT22;5238;43.508;4.980;2022-07-01T05:57:27;21.10;91.30
10384;DHT22;5238;43.508;4.980;2022-07-01T05:59:55;21.10;91.30
10384;DHT22;5238;43.508;4.980;2022-07-01T06:02:22;21.20;91.30
10384;DHT22;5238;43.508;4.980;2022-07-01T06:04:51;21.20;91.30
10384;DHT22;5238;43.508;4.980;2022-07-01T06:07:18;21.20;91.30
10384;DHT22;5238;43.508;4.980;2022-07-01T06:09:49;21.30;91.30
10384;DHT22;5238;43.508;4.980;2022-07-01T06:12:17;21.30;91.30
10384;DHT22;5238;43.508;4.980;2022-07-01T06:14:44;21.30;91.30
10384;DHT22;5238;43.508;4.980;2022-07-01T06:17:13;21.30;91.30
10384;DHT22;5238;43.508;4.980;2022-07-01T06:19:42;21.40;91.30
10384;DHT22;5238;43.508;4.980;2022-07-01T06:22:10;21.50;91.30
10384;DHT22;5238;43.508;4.980;2022-07-01T06:24:42;21.60;91.30
10384;DHT22;5238;43.508;4.980;2022-07-01T06:27:10;21.80;91.30
10384;DHT22;5238;43.508;4.980;2022-07-01T06:29:37;22.00;91.30
10384;DHT22;5238;43.508;4.980;2022-07-01T06:32:05;22.20;91.30
10384;DHT22;5238;43.508;4.980;2022-07-01T06:34:41;22.30;91.30
10384;DHT22;5238;43.508;4.980;2022-07-01T06:37:45;22.50;91.30
10384;DHT22;5238;43.508;4.980;2022-07-01T06:40:14;22.80;91.30
10384;DHT22;5238;43.508;4.980;2022-07-01T06:42:41;23.10;91.30
10384;DHT22;5238;43.508;4.980;2022-07-01T06:45:10;23.30;91.30
10384;DHT22;5238;43.508;4.980;2022-07-01T06:47:37;23.50;91.30
10384;DHT22;5238;43.508;4.980;2022-07-01T06:50:09;23.80;91.30
10384;DHT22;5238;43.508;4.980;2022-07-01T06:52:36;24.00;91.30
10384;DHT22;5238;43.508;4.980;2022-07-01T06:55:03;24.30;91.30
10384;DHT22;5238;43.508;4.980;2022-07-01T06:57:30;24.60;91.30
10384;DHT22;5238;43.508;4.980;2022-07-01T06:59:58;24.80;91.30
10384;DHT22;5238;43.508;4.980;2022-07-01T07:02:31;25.00;91.30
10384;DHT22;5238;43.508;4.980;2022-07-01T07:05:00;25.20;91.30
10384;DHT22;5238;43.508;4.980;2022-07-01T07:07:30;25.50;91.30
10384;DHT22;5238;43.508;4.980;2022-07-01T07:09:57;25.60;91.30
10384;DHT22;5238;43.508;4.980;2022-07-01T07:12:25;25.80;91.30
10384;DHT22;5238;43.508;4.980;2022-07-01T07:14:54;26.00;91.30
10384;DHT22;5238;43.508;4.980;2022-07-01T07:17:21;26.20;91.30
10384;DHT22;5238;43.508;4.980;2022-07-01T07:19:48;26.50;91.30
10384;DHT22;5238;43.508;4.980;2022-07-01T07:22:15;26.70;91.30
10384;DHT22;5238;43.508;4.980;2022-07-01T07:24:44;26.90;91.30
10384;DHT22;5238;43.508;4.980;2022-07-01T07:27:12;27.20;91.30
10384;DHT22;5238;43.508;4.980;2022-07-01T07:29:53;27.50;91.30
10384;DHT22;5238;43.508;4.980;2022-07-01T07:32:29;27.70;91.30
10384;DHT22;5238;43.508;4.980;2022-07-01T07:35:11;27.90;91.30
10384;DHT22;5238;43.508;4.980;2022-07-01T07:38:00;28.00;91.30
10384;DHT22;5238;43.508;4.980;2022-07-01T07:40:29;28.10;91.30
10384;DHT22;5238;43.508;4.980;2022-07-01T07:42:56;28.30;91.30
10384;DHT22;5238;43.508;4.980;2022-07-01T07:45:23;28.40;91.30
10384;DHT22;5238;43.508;4.980;2022-07-01T07:47:52;28.60;91.30
10384;DHT22;5238;43.508;4.980;2022-07-01T07:50:22;28.60;91.30
10384;DHT22;5238;43.508;4.980;2022-07-01T07:52:49;28.90;91.30
10384;DHT22;5238;43.508;4.980;2022-07-01T07:55:16;29.20;91.30
10384;DHT22;5238;43.508;4.980;2022-07-01T07:57:45;29.30;91.30
10384;DHT22;5238;43.508;4.980;2022-07-01T08:00:14;29.50;91.30
10384;DHT22;5238;43.508;4.980;2022-07-01T08:02:46;29.70;91.30
10384;DHT22;5238;43.508;4.980;2022-07-01T08:05:13;29.90;91.30
10384;DHT22;5238;43.508;4.980;2022-07-01T08:07:41;30.00;91.30
10384;DHT22;5238;43.508;4.980;2022-07-01T08:10:11;30.20;91.30
10384;DHT22;5238;43.508;4.980;2022-07-01T08:12:40;30.40;91.30
10384;DHT22;5238;43.508;4.980;2022-07-01T08:15:10;30.50;91.30
10384;DHT22;5238;43.508;4.980;2022-07-01T08:17:42;30.60;90.80
10384;DHT22;5238;43.508;4.980;2022-07-01T08:20:10;30.70;90.70
10384;DHT22;5238;43.508;4.980;2022-07-01T08:22:37;30.80;90.20
10384;DHT22;5238;43.508;4.980;2022-07-01T08:25:07;31.00;90.10
10384;DHT22;5238;43.508;4.980;2022-07-01T08:27:49;31.10;90.30
10384;DHT22;5238;43.508;4.980;2022-07-01T08:30:18;31.40;89.20
10384;DHT22;5238;43.508;4.980;2022-07-01T08:32:45;31.60;88.30
10384;DHT22;5238;43.508;4.980;2022-07-01T08:35:17;31.80;88.60
10384;DHT22;5238;43.508;4.980;2022-07-01T08:37:44;32.10;87.90
10384;DHT22;5238;43.508;4.980;2022-07-01T08:40:14;32.30;87.30
10384;DHT22;5238;43.508;4.980;2022-07-01T08:42:41;32.40;86.90
10384;DHT22;5238;43.508;4.980;2022-07-01T08:45:11;32.60;85.80
10384;DHT22;5238;43.508;4.980;2022-07-01T08:47:55;32.70;85.40
10384;DHT22;5238;43.508;4.980;2022-07-01T08:50:24;32.80;85.50
10384;DHT22;5238;43.508;4.980;2022-07-01T08:52:54;32.90;85.70
10384;DHT22;5238;43.508;4.980;2022-07-01T08:55:22;33.00;85.70
10384;DHT22;5238;43.508;4.980;2022-07-01T08:58:33;33.10;85.20
10384;DHT22;5238;43.508;4.980;2022-07-01T09:01:55;33.10;85.00
10384;DHT22;5238;43.508;4.980;2022-07-01T09:04:24;33.20;84.00
10384;DHT22;5238;43.508;4.980;2022-07-01T09:06:51;33.10;83.80
10384;DHT22;5238;43.508;4.980;2022-07-01T09:09:39;33.30;84.40
10384;DHT22;5238;43.508;4.980;2022-07-01T09:12:38;33.30;82.90
10384;DHT22;5238;43.508;4.980;2022-07-01T09:15:22;33.50;82.50
10384;DHT22;5238;43.508;4.980;2022-07-01T09:17:51;33.70;83.60
10384;DHT22;5238;43.508;4.980;2022-07-01T09:24:33;34.10;82.30
10384;DHT22;5238;43.508;4.980;2022-07-01T09:27:03;34.10;81.20
10384;DHT22;5238;43.508;4.980;2022-07-01T09:29:44;34.40;81.60
10384;DHT22;5238;43.508;4.980;2022-07-01T09:38:52;35.00;79.40
10384;DHT22;5238;43.508;4.980;2022-07-01T09:41:23;35.00;80.40
10384;DHT22;5238;43.508;4.980;2022-07-01T09:43:52;35.00;79.50
10384;DHT22;5238;43.508;4.980;2022-07-01T09:48:49;34.90;79.40
10384;DHT22;5238;43.508;4.980;2022-07-01T09:51:19;35.00;79.00
10384;DHT22;5238;43.508;4.980;2022-07-01T09:54:01;35.00;78.90
10384;DHT22;5238;43.508;4.980;2022-07-01T09:56:33;35.10;79.00
10384;DHT22;5238;43.508;4.980;2022-07-01T09:59:01;35.10;78.80
10384;DHT22;5238;43.508;4.980;2022-07-01T10:01:32;35.30;78.40
10384;DHT22;5238;43.508;4.980;2022-07-01T10:04:21;35.40;78.30
10384;DHT22;5238;43.508;4.980;2022-07-01T10:07:20;35.50;78.70
10384;DHT22;5238;43.508;4.980;2022-07-01T10:10:23;35.60;78.00
10384;DHT22;5238;43.508;4.980;2022-07-01T10:13:21;35.70;77.00
10384;DHT22;5238;43.508;4.980;2022-07-01T10:16:08;35.80;76.60
10384;DHT22;5238;43.508;4.980;2022-07-01T10:18:35;35.90;77.00
10384;DHT22;5238;43.508;4.980;2022-07-01T10:21:03;35.90;75.60
10384;DHT22;5238;43.508;4.980;2022-07-01T10:26:45;36.00;76.10
10384;DHT22;5238;43.508;4.980;2022-07-01T10:29:31;36.10;75.30
10384;DHT22;5238;43.508;4.980;2022-07-01T10:32:02;36.10;74.90
10384;DHT22;5238;43.508;4.980;2022-07-01T10:34:34;35.80;75.00
10384;DHT22;5238;43.508;4.980;2022-07-01T10:42:12;35.60;75.60
10384;DHT22;5238;43.508;4.980;2022-07-01T10:50:19;35.60;75.90
10384;DHT22;5238;43.508;4.980;2022-07-01T10:55:36;35.70;75.30
10384;DHT22;5238;43.508;4.980;2022-07-01T10:58:06;35.70;76.40
10384;DHT22;5238;43.508;4.980;2022-07-01T11:00:46;35.60;75.70
10384;DHT22;5238;43.508;4.980;2022-07-01T11:03:24;35.60;75.10
10384;DHT22;5238;43.508;4.980;2022-07-01T11:05:58;35.40;74.90
10384;DHT22;5238;43.508;4.980;2022-07-01T11:08:25;35.30;74.90
10384;DHT22;5238;43.508;4.980;2022-07-01T11:11:17;35.30;75.80
10384;DHT22;5238;43.508;4.980;2022-07-01T11:14:01;35.30;75.00
10384;DHT22;5238;43.508;4.980;2022-07-01T11:16:39;35.20;74.30
10384;DHT22;5238;43.508;4.980;2022-07-01T11:19:06;35.10;74.20
10384;DHT22;5238;43.508;4.980;2022-07-01T11:21:34;34.90;74.50
10384;DHT22;5238;43.508;4.980;2022-07-01T11:24:09;34.80;74.50
10384;DHT22;5238;43.508;4.980;2022-07-01T11:29:25;34.70;75.70
10384;DHT22;5238;43.508;4.980;2022-07-01T11:32:02;34.70;75.30
10384;DHT22;5238;43.508;4.980;2022-07-01T11:38:04;34.60;74.10
10384;DHT22;5238;43.508;4.980;2022-07-01T11:51:24;33.40;75.40
10384;DHT22;5238;43.508;4.980;2022-07-01T11:53:54;33.00;75.90
10384;DHT22;5238;43.508;4.980;2022-07-01T12:00:13;32.50;78.00
10384;DHT22;5238;43.508;4.980;2022-07-01T12:02:49;32.30;76.40
10384;DHT22;5238;43.508;4.980;2022-07-01T12:05:41;32.20;76.80
10384;DHT22;5238;43.508;4.980;2022-07-01T12:08:27;32.00;77.10
10384;DHT22;5238;43.508;4.980;2022-07-01T12:11:10;31.80;76.70
10384;DHT22;5238;43.508;4.980;2022-07-01T12:13:37;31.60;77.00
10384;DHT22;5238;43.508;4.980;2022-07-01T12:22:00;31.30;78.00
10384;DHT22;5238;43.508;4.980;2022-07-01T12:24:28;31.10;76.80
10384;DHT22;5238;43.508;4.980;2022-07-01T12:27:07;31.00;78.50
10384;DHT22;5238;43.508;4.980;2022-07-01T12:29:51;30.90;76.70
10384;DHT22;5238;43.508;4.980;2022-07-01T12:32:20;30.90;77.00
10384;DHT22;5238;43.508;4.980;2022-07-01T12:34:59;30.80;77.70
10384;DHT22;5238;43.508;4.980;2022-07-01T12:37:45;30.80;77.50
10384;DHT22;5238;43.508;4.980;2022-07-01T12:40:26;30.80;78.40
10384;DHT22;5238;43.508;4.980;2022-07-01T12:43:02;30.80;77.60
10384;DHT22;5238;43.508;4.980;2022-07-01T12:45:39;30.80;78.10
10384;DHT22;5238;43.508;4.980;2022-07-01T12:48:10;30.80;79.30
10384;DHT22;5238;43.508;4.980;2022-07-01T12:50:41;30.80;80.00
10384;DHT22;5238;43.508;4.980;2022-07-01T12:53:21;30.70;77.80
10384;DHT22;5238;43.508;4.980;2022-07-01T12:55:54;30.50;76.40
10384;DHT22;5238;43.508;4.980;2022-07-01T12:58:32;30.50;77.20
10384;DHT22;5238;43.508;4.980;2022-07-01T13:01:04;30.40;76.50
10384;DHT22;5238;43.508;4.980;2022-07-01T13:03:36;30.50;79.50
10384;DHT22;5238;43.508;4.980;2022-07-01T13:06:07;30.40;78.70
10384;DHT22;5238;43.508;4.980;2022-07-01T13:08:41;30.40;78.70
10384;DHT22;5238;43.508;4.980;2022-07-01T13:11:13;30.40;77.50
10384;DHT22;5238;43.508;4.980;2022-07-01T13:13:41;30.30;78.00
10384;DHT22;5238;43.508;4.980;2022-07-01T13:16:12;30.30;79.10
10384;DHT22;5238;43.508;4.980;2022-07-01T13:18:50;30.30;77.80
10384;DHT22;5238;43.508;4.980;2022-07-01T13:21:21;30.30;76.40
10384;DHT22;5238;43.508;4.980;2022-07-01T13:23:50;30.30;79.00
10384;DHT22;5238;43.508;4.980;2022-07-01T13:26:33;30.20;79.90
10384;DHT22;5238;43.508;4.980;2022-07-01T13:29:21;30.30;78.20
10384;DHT22;5238;43.508;4.980;2022-07-01T13:31:54;30.20;76.20
10384;DHT22;5238;43.508;4.980;2022-07-01T13:34:26;30.10;77.50
10384;DHT22;5238;43.508;4.980;2022-07-01T13:37:02;30.10;76.00
10384;DHT22;5238;43.508;4.980;2022-07-01T13:39:33;30.00;76.60
10384;DHT22;5238;43.508;4.980;2022-07-01T13:42:09;30.00;77.70
10384;DHT22;5238;43.508;4.980;2022-07-01T13:44:38;29.90;78.40
10384;DHT22;5238;43.508;4.980;2022-07-01T13:47:06;29.90;78.20
10384;DHT22;5238;43.508;4.980;2022-07-01T13:49:34;29.90;77.50
10384;DHT22;5238;43.508;4.980;2022-07-01T13:52:16;29.90;77.30
10384;DHT22;5238;43.508;4.980;2022-07-01T13:57:34;29.80;79.10
10384;DHT22;5238;43.508;4.980;2022-07-01T14:00:19;29.80;79.30
10384;DHT22;5238;43.508;4.980;2022-07-01T14:03:01;29.80;77.60
10384;DHT22;5238;43.508;4.980;2022-07-01T14:05:49;29.80;77.20
10384;DHT22;5238;43.508;4.980;2022-07-01T14:08:18;29.80;78.80
10384;DHT22;5238;43.508;4.980;2022-07-01T14:10:46;29.80;79.60
10384;DHT22;5238;43.508;4.980;2022-07-01T14:13:16;29.80;79.70
10384;DHT22;5238;43.508;4.980;2022-07-01T14:15:46;29.80;79.10
10384;DHT22;5238;43.508;4.980;2022-07-01T14:18:15;29.80;78.50
10384;DHT22;5238;43.508;4.980;2022-07-01T14:20:43;29.80;78.10
10384;DHT22;5238;43.508;4.980;2022-07-01T14:23:15;29.80;78.80
10384;DHT22;5238;43.508;4.980;2022-07-01T14:25:55;29.80;78.80
10384;DHT22;5238;43.508;4.980;2022-07-01T14:28:24;29.90;79.40
10384;DHT22;5238;43.508;4.980;2022-07-01T14:30:52;29.90;78.90
10384;DHT22;5238;43.508;4.980;2022-07-01T14:33:37;29.90;78.80
10384;DHT22;5238;43.508;4.980;2022-07-01T14:36:09;30.00;78.80
10384;DHT22;5238;43.508;4.980;2022-07-01T14:38:43;30.00;78.10
10384;DHT22;5238;43.508;4.980;2022-07-01T14:41:10;30.00;78.10
10384;DHT22;5238;43.508;4.980;2022-07-01T14:43:53;30.00;77.60
10384;DHT22;5238;43.508;4.980;2022-07-01T14:46:20;30.00;76.50
10384;DHT22;5238;43.508;4.980;2022-07-01T14:48:59;30.00;77.30
10384;DHT22;5238;43.508;4.980;2022-07-01T14:51:33;30.10;77.20
10384;DHT22;5238;43.508;4.980;2022-07-01T14:54:02;30.10;75.70
10384;DHT22;5238;43.508;4.980;2022-07-01T14:56:30;30.20;76.80
10384;DHT22;5238;43.508;4.980;2022-07-01T14:59:06;30.20;76.80
10384;DHT22;5238;43.508;4.980;2022-07-01T15:01:35;30.20;76.60
10384;DHT22;5238;43.508;4.980;2022-07-01T15:04:06;30.20;76.80
10384;DHT22;5238;43.508;4.980;2022-07-01T15:06:37;30.20;76.80
10384;DHT22;5238;43.508;4.980;2022-07-01T15:09:18;30.20;76.80
10384;DHT22;5238;43.508;4.980;2022-07-01T15:11:53;30.20;76.30
10384;DHT22;5238;43.508;4.980;2022-07-01T15:14:29;30.20;76.40
10384;DHT22;5238;43.508;4.980;2022-07-01T15:17:07;30.20;75.50
10384;DHT22;5238;43.508;4.980;2022-07-01T15:19:34;30.20;75.40
10384;DHT22;5238;43.508;4.980;2022-07-01T15:22:11;30.20;75.90
10384;DHT22;5238;43.508;4.980;2022-07-01T15:24:39;30.20;76.40
10384;DHT22;5238;43.508;4.980;2022-07-01T15:27:23;30.20;75.70
10384;DHT22;5238;43.508;4.980;2022-07-01T15:30:00;30.20;74.30
10384;DHT22;5238;43.508;4.980;2022-07-01T15:32:45;30.10;73.00
10384;DHT22;5238;43.508;4.980;2022-07-01T15:35:13;30.10;73.00
10384;DHT22;5238;43.508;4.980;2022-07-01T15:37:52;30.10;73.60
10384;DHT22;5238;43.508;4.980;2022-07-01T15:40:20;30.10;75.60
10384;DHT22;5238;43.508;4.980;2022-07-01T15:42:48;30.10;74.80
10384;DHT22;5238;43.508;4.980;2022-07-01T15:45:36;30.20;74.60
10384;DHT22;5238;43.508;4.980;2022-07-01T15:48:06;30.20;74.50
10384;DHT22;5238;43.508;4.980;2022-07-01T15:50:44;30.20;74.70
10384;DHT22;5238;43.508;4.980;2022-07-01T15:53:17;30.30;74.70
10384;DHT22;5238;43.508;4.980;2022-07-01T15:55:50;30.30;73.60
10384;DHT22;5238;43.508;4.980;2022-07-01T15:58:22;30.20;74.20
10384;DHT22;5238;43.508;4.980;2022-07-01T16:01:10;30.20;74.80
10384;DHT22;5238;43.508;4.980;2022-07-01T16:03:51;30.20;74.40
10384;DHT22;5238;43.508;4.980;2022-07-01T16:06:20;30.20;74.50
10384;DHT22;5238;43.508;4.980;2022-07-01T16:09:01;30.20;74.40
10384;DHT22;5238;43.508;4.980;2022-07-01T16:11:32;30.20;73.80
10384;DHT22;5238;43.508;4.980;2022-07-01T16:13:59;30.10;72.20
10384;DHT22;5238;43.508;4.980;2022-07-01T16:16:37;30.10;71.70
10384;DHT22;5238;43.508;4.980;2022-07-01T16:19:08;30.10;73.10
10384;DHT22;5238;43.508;4.980;2022-07-01T16:21:41;30.10;73.30
10384;DHT22;5238;43.508;4.980;2022-07-01T16:24:14;30.10;73.80
10384;DHT22;5238;43.508;4.980;2022-07-01T16:26:56;30.10;74.50
10384;DHT22;5238;43.508;4.980;2022-07-01T16:29:41;30.20;74.70
10384;DHT22;5238;43.508;4.980;2022-07-01T16:32:24;30.20;75.70
10384;DHT22;5238;43.508;4.980;2022-07-01T16:34:55;30.10;76.20
10384;DHT22;5238;43.508;4.980;2022-07-01T16:37:30;30.10;76.70
10384;DHT22;5238;43.508;4.980;2022-07-01T16:40:10;30.20;76.80
10384;DHT22;5238;43.508;4.980;2022-07-01T16:42:46;30.10;76.50
10384;DHT22;5238;43.508;4.980;2022-07-01T16:45:16;30.10;75.90
10384;DHT22;5238;43.508;4.980;2022-07-01T16:47:49;30.10;76.90
10384;DHT22;5238;43.508;4.980;2022-07-01T16:50:23;30.10;77.00
10384;DHT22;5238;43.508;4.980;2022-07-01T16:52:52;30.00;77.50
10384;DHT22;5238;43.508;4.980;2022-07-01T16:55:25;30.00;77.90
10384;DHT22;5238;43.508;4.980;2022-07-01T16:57:58;30.00;77.80
10384;DHT22;5238;43.508;4.980;2022-07-01T17:00:26;30.00;78.10
10384;DHT22;5238;43.508;4.980;2022-07-01T17:02:59;30.00;77.90
10384;DHT22;5238;43.508;4.980;2022-07-01T17:05:28;30.00;77.40
10384;DHT22;5238;43.508;4.980;2022-07-01T17:07:58;29.90;77.60
10384;DHT22;5238;43.508;4.980;2022-07-01T17:10:27;29.90;77.60
10384;DHT22;5238;43.508;4.980;2022-07-01T17:12:55;29.90;77.70
10384;DHT22;5238;43.508;4.980;2022-07-01T17:15:22;29.80;77.40
10384;DHT22;5238;43.508;4.980;2022-07-01T17:17:49;29.80;77.40
10384;DHT22;5238;43.508;4.980;2022-07-01T17:20:18;29.70;77.70
10384;DHT22;5238;43.508;4.980;2022-07-01T17:23:01;29.70;77.70
10384;DHT22;5238;43.508;4.980;2022-07-01T17:25:41;29.60;77.90
10384;DHT22;5238;43.508;4.980;2022-07-01T17:28:33;29.50;78.00
10384;DHT22;5238;43.508;4.980;2022-07-01T17:31:17;29.50;78.40
10384;DHT22;5238;43.508;4.980;2022-07-01T17:33:53;29.40;78.80
10384;DHT22;5238;43.508;4.980;2022-07-01T17:36:26;29.40;78.80
10384;DHT22;5238;43.508;4.980;2022-07-01T17:39:04;29.30;79.30
10384;DHT22;5238;43.508;4.980;2022-07-01T17:41:35;29.30;79.60
10384;DHT22;5238;43.508;4.980;2022-07-01T17:44:04;29.20;79.80
10384;DHT22;5238;43.508;4.980;2022-07-01T17:46:32;29.20;79.90
10384;DHT22;5238;43.508;4.980;2022-07-01T17:49:00;29.20;79.90
10384;DHT22;5238;43.508;4.980;2022-07-01T17:51:39;29.10;80.60
10384;DHT22;5238;43.508;4.980;2022-07-01T17:54:13;29.10;80.50
10384;DHT22;5238;43.508;4.980;2022-07-01T17:56:46;29.00;80.50
10384;DHT22;5238;43.508;4.980;2022-07-01T17:59:39;29.00;80.60
10384;DHT22;5238;43.508;4.980;2022-07-01T18:02:07;28.90;80.70
10384;DHT22;5238;43.508;4.980;2022-07-01T18:04:34;28.80;81.00
10384;DHT22;5238;43.508;4.980;2022-07-01T18:07:03;28.80;81.20
10384;DHT22;5238;43.508;4.980;2022-07-01T18:09:30;28.80;81.40
10384;DHT22;5238;43.508;4.980;2022-07-01T18:12:07;28.70;81.70
10384;DHT22;5238;43.508;4.980;2022-07-01T18:14:56;28.60;82.00
10384;DHT22;5238;43.508;4.980;2022-07-01T18:17:47;28.60;82.30
10384;DHT22;5238;43.508;4.980;2022-07-01T18:20:25;28.50;82.50
10384;DHT22;5238;43.508;4.980;2022-07-01T18:23:13;28.40;82.50
10384;DHT22;5238;43.508;4.980;2022-07-01T18:25:49;28.30;82.80
10384;DHT22;5238;43.508;4.980;2022-07-01T18:28:28;28.20;82.90
10384;DHT22;5238;43.508;4.980;2022-07-01T18:30:58;28.20;83.30
10384;DHT22;5238;43.508;4.980;2022-07-01T18:33:36;28.10;83.30
10384;DHT22;5238;43.508;4.980;2022-07-01T18:36:18;28.10;83.30
10384;DHT22;5238;43.508;4.980;2022-07-01T18:38:56;28.00;83.40
10384;DHT22;5238;43.508;4.980;2022-07-01T18:41:23;27.90;83.40
10384;DHT22;5238;43.508;4.980;2022-07-01T18:44:03;27.90;83.50
10384;DHT22;5238;43.508;4.980;2022-07-01T18:46:38;27.80;83.50
10384;DHT22;5238;43.508;4.980;2022-07-01T18:49:05;27.70;83.90
10384;DHT22;5238;43.508;4.980;2022-07-01T18:51:33;27.60;84.00
10384;DHT22;5238;43.508;4.980;2022-07-01T18:54:01;27.60;84.20
10384;DHT22;5238;43.508;4.980;2022-07-01T18:56:28;27.50;84.10
10384;DHT22;5238;43.508;4.980;2022-07-01T18:59:17;27.50;84.10
10384;DHT22;5238;43.508;4.980;2022-07-01T19:01:58;27.40;84.30
10384;DHT22;5238;43.508;4.980;2022-07-01T19:04:25;27.30;84.40
10384;DHT22;5238;43.508;4.980;2022-07-01T19:06:57;27.20;84.60
10384;DHT22;5238;43.508;4.980;2022-07-01T19:09:28;27.10;84.60
10384;DHT22;5238;43.508;4.980;2022-07-01T19:12:05;27.10;84.80
10384;DHT22;5238;43.508;4.980;2022-07-01T19:17:08;27.00;85.00
10384;DHT22;5238;43.508;4.980;2022-07-01T19:19:36;26.90;85.00
10384;DHT22;5238;43.508;4.980;2022-07-01T19:22:04;26.90;84.90
10384;DHT22;5238;43.508;4.980;2022-07-01T19:24:32;26.80;84.50
10384;DHT22;5238;43.508;4.980;2022-07-01T19:27:00;26.70;84.20
10384;DHT22;5238;43.508;4.980;2022-07-01T19:29:27;26.70;84.20
10384;DHT22;5238;43.508;4.980;2022-07-01T19:32:05;26.60;84.10
10384;DHT22;5238;43.508;4.980;2022-07-01T19:34:32;26.50;83.90
10384;DHT22;5238;43.508;4.980;2022-07-01T19:36:59;26.50;84.00
10384;DHT22;5238;43.508;4.980;2022-07-01T19:39:26;26.40;84.10
10384;DHT22;5238;43.508;4.980;2022-07-01T19:41:55;26.30;84.00
10384;DHT22;5238;43.508;4.980;2022-07-01T19:44:31;26.30;84.10
10384;DHT22;5238;43.508;4.980;2022-07-01T19:47:07;26.20;84.30
10384;DHT22;5238;43.508;4.980;2022-07-01T19:49:34;26.20;84.40
10384;DHT22;5238;43.508;4.980;2022-07-01T19:52:01;26.10;84.50
10384;DHT22;5238;43.508;4.980;2022-07-01T19:54:40;26.10;84.60
10384;DHT22;5238;43.508;4.980;2022-07-01T19:57:28;26.00;84.40
10384;DHT22;5238;43.508;4.980;2022-07-01T20:00:16;25.90;84.40
10384;DHT22;5238;43.508;4.980;2022-07-01T20:03:07;25.90;84.40
10384;DHT22;5238;43.508;4.980;2022-07-01T20:05:55;25.80;84.60
10384;DHT22;5238;43.508;4.980;2022-07-01T20:09:13;25.70;84.70
10384;DHT22;5238;43.508;4.980;2022-07-01T20:16:25;25.60;85.20
10384;DHT22;5238;43.508;4.980;2022-07-01T20:19:18;25.50;85.50
10384;DHT22;5238;43.508;4.980;2022-07-01T20:21:46;25.50;85.70
10384;DHT22;5238;43.508;4.980;2022-07-01T20:24:27;25.40;85.90
10384;DHT22;5238;43.508;4.980;2022-07-01T20:27:12;25.40;86.20
10384;DHT22;5238;43.508;4.980;2022-07-01T20:29:47;25.30;86.50
10384;DHT22;5238;43.508;4.980;2022-07-01T20:32:15;25.30;87.00
10384;DHT22;5238;43.508;4.980;2022-07-01T20:37:20;25.10;88.30
10384;DHT22;5238;43.508;4.980;2022-07-01T20:39:47;25.10;88.90
10384;DHT22;5238;43.508;4.980;2022-07-01T20:42:26;25.10;89.30
10384;DHT22;5238;43.508;4.980;2022-07-01T20:44:53;25.00;90.30
10384;DHT22;5238;43.508;4.980;2022-07-01T20:47:22;25.00;90.90
10384;DHT22;5238;43.508;4.980;2022-07-01T20:53:14;24.90;91.30
10384;DHT22;5238;43.508;4.980;2022-07-01T20:55:58;24.90;91.30
10384;DHT22;5238;43.508;4.980;2022-07-01T21:05:30;24.80;91.30
10384;DHT22;5238;43.508;4.980;2022-07-01T21:08:13;24.70;91.30
10384;DHT22;5238;43.508;4.980;2022-07-01T21:10:42;24.70;91.30
10384;DHT22;5238;43.508;4.980;2022-07-01T21:13:11;24.60;91.30
10384;DHT22;5238;43.508;4.980;2022-07-01T21:16:06;24.60;91.30
10384;DHT22;5238;43.508;4.980;2022-07-01T21:18:39;24.60;91.30
10384;DHT22;5238;43.508;4.980;2022-07-01T21:21:19;24.60;91.30